sensor_id;sensor_type;location;lat;lon;timestamp;pressure;altitude;pressure_sealevel;temperature;humidity
78488;BME280;67885;49.758;9.582;2023-07-29T00:02:17;98709.41;;;23.23;56.73
78488;BME280;67885;49.758;9.582;2023-07-29T00:04:45;98687.81;;;23.17;55.92
78488;BME280;67885;49.758;9.582;2023-07-29T00:07:12;98692.38;;;23.23;56.06
78488;BME280;67885;49.758;9.582;2023-07-29T00:09:38;98689.66;;;23.23;56.37
78488;BME280;67885;49.758;9.582;2023-07-29T00:12:05;98689.88;;;23.21;56.25
78488;BME280;67885;49.758;9.582;2023-07-29T00:14:32;98648.28;;;22.90;56.47
78488;BME280;67885;49.758;9.582;2023-07-29T00:16:59;98697.16;;;23.21;56.74
78488;BME280;67885;49.758;9.582;2023-07-29T00:19:25;98691.75;;;23.21;57.45
78488;BME280;67885;49.758;9.582;2023-07-29T00:21:55;98693.19;;;23.23;56.78
78488;BME280;67885;49.758;9.582;2023-07-29T00:24:21;98693.00;;;23.25;56.69
78488;BME280;67885;49.758;9.582;2023-07-29T00:26:48;98697.78;;;23.23;56.69
78488;BME280;67885;49.758;9.582;2023-07-29T00:29:15;98694.03;;;23.24;57.05
78488;BME280;67885;49.758;9.582;2023-07-29T00:31:41;98693.19;;;23.23;57.14
78488;BME280;67885;49.758;9.582;2023-07-29T00:34:08;98697.78;;;23.23;57.94
78488;BME280;67885;49.758;9.582;2023-07-29T00:36:34;98695.06;;;23.23;57.69
78488;BME280;67885;49.758;9.582;2023-07-29T00:39:02;98689.44;;;23.24;57.62
78488;BME280;67885;49.758;9.582;2023-07-29T00:41:29;98698.19;;;23.27;57.51
78488;BME280;67885;49.758;9.582;2023-07-29T00:43:56;98699.00;;;23.27;57.03
78488;BME280;67885;49.758;9.582;2023-07-29T00:46:24;98698.78;;;23.29;57.25
78488;BME280;67885;49.758;9.582;2023-07-29T00:48:51;98685.03;;;23.30;57.27
78488;BME280;67885;49.758;9.582;2023-07-29T00:51:17;98688.75;;;23.36;57.87
78488;BME280;67885;49.758;9.582;2023-07-29T00:53:44;98689.34;;;23.38;56.93
78488;BME280;67885;49.758;9.582;2023-07-29T00:56:12;98679.38;;;23.38;57.81
78488;BME280;67885;49.758;9.582;2023-07-29T00:58:39;98681.03;;;23.39;57.53
78488;BME280;67885;49.758;9.582;2023-07-29T01:01:06;98618.97;;;22.94;57.21
78488;BME280;67885;49.758;9.582;2023-07-29T01:03:33;98673.97;;;23.38;56.85
78488;BME280;67885;49.758;9.582;2023-07-29T01:06:08;98673.97;;;23.38;56.95
78488;BME280;67885;49.758;9.582;2023-07-29T01:08:44;98681.88;;;23.40;56.51
78488;BME280;67885;49.758;9.582;2023-07-29T01:11:29;98676.88;;;23.37;56.63
78488;BME280;67885;49.758;9.582;2023-07-29T01:14:04;98673.19;;;23.31;57.51
78488;BME280;67885;49.758;9.582;2023-07-29T01:16:40;98658.25;;;23.29;57.16
78488;BME280;67885;49.758;9.582;2023-07-29T01:19:20;98666.78;;;23.26;57.20
78488;BME280;67885;49.758;9.582;2023-07-29T01:21:51;98655.81;;;23.20;57.37
78488;BME280;67885;49.758;9.582;2023-07-29T01:24:19;98649.63;;;23.13;58.48
78488;BME280;67885;49.758;9.582;2023-07-29T01:26:46;98654.59;;;23.16;58.48
78488;BME280;67885;49.758;9.582;2023-07-29T01:29:12;98648.16;;;23.17;57.96
78488;BME280;67885;49.758;9.582;2023-07-29T01:31:44;98644.59;;;23.17;57.99
78488;BME280;67885;49.758;9.582;2023-07-29T01:34:21;98645.22;;;23.19;57.67
78488;BME280;67885;49.758;9.582;2023-07-29T01:36:52;98644.19;;;23.20;58.08
78488;BME280;67885;49.758;9.582;2023-07-29T01:39:23;98637.53;;;23.22;57.36
78488;BME280;67885;49.758;9.582;2023-07-29T01:41:52;98639.38;;;23.22;57.57
78488;BME280;67885;49.758;9.582;2023-07-29T01:44:19;98639.19;;;23.17;57.38
78488;BME280;67885;49.758;9.582;2023-07-29T01:46:45;98634.66;;;23.11;57.93
78488;BME280;67885;49.758;9.582;2023-07-29T01:49:12;98638.84;;;23.06;58.36
78488;BME280;67885;49.758;9.582;2023-07-29T01:51:38;98639.44;;;23.08;58.41
78488;BME280;67885;49.758;9.582;2023-07-29T01:54:05;98636.31;;;23.12;58.18
78488;BME280;67885;49.758;9.582;2023-07-29T01:56:33;98635.91;;;23.15;57.53
78488;BME280;67885;49.758;9.582;2023-07-29T01:58:59;98642.34;;;23.14;57.97
78488;BME280;67885;49.758;9.582;2023-07-29T02:01:26;98635.09;;;23.14;57.35
78488;BME280;67885;49.758;9.582;2023-07-29T02:03:53;98627.56;;;23.16;57.72
78488;BME280;67885;49.758;9.582;2023-07-29T02:06:20;98626.53;;;23.17;57.15
78488;BME280;67885;49.758;9.582;2023-07-29T02:08:47;98634.88;;;23.16;57.51
78488;BME280;67885;49.758;9.582;2023-07-29T02:11:14;98627.19;;;23.13;57.78
78488;BME280;67885;49.758;9.582;2023-07-29T02:13:42;98615.75;;;23.11;57.90
78488;BME280;67885;49.758;9.582;2023-07-29T02:16:09;98609.53;;;23.10;58.31
78488;BME280;67885;49.758;9.582;2023-07-29T02:18:35;98546.66;;;22.71;58.12
78488;BME280;67885;49.758;9.582;2023-07-29T02:21:02;98607.88;;;23.09;57.78
78488;BME280;67885;49.758;9.582;2023-07-29T02:23:29;98606.44;;;23.06;57.98
78488;BME280;67885;49.758;9.582;2023-07-29T02:25:56;98608.91;;;23.08;57.71
78488;BME280;67885;49.758;9.582;2023-07-29T02:28:23;98607.03;;;23.08;58.19
78488;BME280;67885;49.758;9.582;2023-07-29T02:31:09;98591.47;;;23.04;58.46
78488;BME280;67885;49.758;9.582;2023-07-29T02:33:37;98598.09;;;23.15;57.50
78488;BME280;67885;49.758;9.582;2023-07-29T02:36:03;98604.94;;;23.17;58.07
78488;BME280;67885;49.758;9.582;2023-07-29T02:38:30;98602.00;;;23.19;57.73
78488;BME280;67885;49.758;9.582;2023-07-29T02:40:57;98606.13;;;23.21;57.29
78488;BME280;67885;49.758;9.582;2023-07-29T02:43:24;98606.38;;;23.20;58.79
78488;BME280;67885;49.758;9.582;2023-07-29T02:45:51;98604.47;;;23.20;58.75
78488;BME280;67885;49.758;9.582;2023-07-29T02:48:18;98556.47;;;22.90;58.36
78488;BME280;67885;49.758;9.582;2023-07-29T02:50:45;98612.34;;;23.22;57.87
78488;BME280;67885;49.758;9.582;2023-07-29T02:53:11;98610.31;;;23.17;58.81
78488;BME280;67885;49.758;9.582;2023-07-29T02:55:39;98616.19;;;23.14;59.17
78488;BME280;67885;49.758;9.582;2023-07-29T02:58:06;98621.59;;;23.07;58.83
78488;BME280;67885;49.758;9.582;2023-07-29T03:00:32;98626.59;;;23.04;59.64
78488;BME280;67885;49.758;9.582;2023-07-29T03:03:01;98624.34;;;23.01;58.85
78488;BME280;67885;49.758;9.582;2023-07-29T03:05:28;98631.63;;;22.94;59.38
78488;BME280;67885;49.758;9.582;2023-07-29T03:07:54;98620.47;;;22.90;59.34
78488;BME280;67885;49.758;9.582;2023-07-29T03:10:21;98629.59;;;22.89;59.78
78488;BME280;67885;49.758;9.582;2023-07-29T03:12:48;98622.53;;;22.88;59.94
78488;BME280;67885;49.758;9.582;2023-07-29T03:15:15;98610.50;;;22.84;60.29
78488;BME280;67885;49.758;9.582;2023-07-29T03:17:42;98604.13;;;22.78;60.21
78488;BME280;67885;49.758;9.582;2023-07-29T03:20:10;98592.69;;;22.76;59.69
78488;BME280;67885;49.758;9.582;2023-07-29T03:22:37;98598.31;;;22.74;60.52
78488;BME280;67885;49.758;9.582;2023-07-29T03:25:04;98592.09;;;22.74;59.25
78488;BME280;67885;49.758;9.582;2023-07-29T03:27:31;98586.53;;;22.69;60.50
78488;BME280;67885;49.758;9.582;2023-07-29T03:29:58;98581.78;;;22.64;60.65
78488;BME280;67885;49.758;9.582;2023-07-29T03:32:25;98587.19;;;22.64;60.55
78488;BME280;67885;49.758;9.582;2023-07-29T03:34:52;98576.75;;;22.68;60.32
78488;BME280;67885;49.758;9.582;2023-07-29T03:37:20;98568.84;;;22.73;60.32
78488;BME280;67885;49.758;9.582;2023-07-29T03:39:47;98576.72;;;22.74;60.34
78488;BME280;67885;49.758;9.582;2023-07-29T03:42:14;98579.41;;;22.74;60.00
78488;BME280;67885;49.758;9.582;2023-07-29T03:44:40;98573.59;;;22.78;61.15
78488;BME280;67885;49.758;9.582;2023-07-29T03:47:07;98573.59;;;22.78;60.95
78488;BME280;67885;49.758;9.582;2023-07-29T03:49:34;98568.81;;;22.80;60.68
78488;BME280;67885;49.758;9.582;2023-07-29T03:52:00;98560.69;;;22.80;59.81
78488;BME280;67885;49.758;9.582;2023-07-29T03:54:28;98557.19;;;22.79;60.02
78488;BME280;67885;49.758;9.582;2023-07-29T03:56:55;98544.72;;;22.78;59.50
78488;BME280;67885;49.758;9.582;2023-07-29T03:59:22;98544.72;;;22.78;59.45
78488;BME280;67885;49.758;9.582;2023-07-29T04:01:48;98561.97;;;22.77;60.51
78488;BME280;67885;49.758;9.582;2023-07-29T04:04:15;98556.56;;;22.77;59.62
78488;BME280;67885;49.758;9.582;2023-07-29T04:06:42;98548.47;;;22.77;59.47
78488;BME280;67885;49.758;9.582;2023-07-29T04:09:09;98542.47;;;22.75;59.64
78488;BME280;67885;49.758;9.582;2023-07-29T04:11:37;98535.41;;;22.74;60.36
78488;BME280;67885;49.758;9.582;2023-07-29T04:14:03;98549.31;;;22.78;60.54
78488;BME280;67885;49.758;9.582;2023-07-29T04:16:30;98553.22;;;22.82;59.64
78488;BME280;67885;49.758;9.582;2023-07-29T04:18:57;98556.06;;;22.87;59.19
78488;BME280;67885;49.758;9.582;2023-07-29T04:21:23;98554.00;;;22.89;59.24
78488;BME280;67885;49.758;9.582;2023-07-29T04:23:50;98551.88;;;22.91;59.03
78488;BME280;67885;49.758;9.582;2023-07-29T04:26:17;98557.09;;;22.93;59.88
78488;BME280;67885;49.758;9.582;2023-07-29T04:28:45;98551.03;;;22.97;55.06
78488;BME280;67885;49.758;9.582;2023-07-29T04:31:11;98555.34;;;23.05;57.40
78488;BME280;67885;49.758;9.582;2023-07-29T04:33:38;98549.94;;;23.05;57.74
78488;BME280;67885;49.758;9.582;2023-07-29T04:36:05;98544.13;;;23.01;58.57
78488;BME280;67885;49.758;9.582;2023-07-29T04:38:33;98534.59;;;22.99;58.74
78488;BME280;67885;49.758;9.582;2023-07-29T04:41:00;98533.16;;;22.96;58.63
78488;BME280;67885;49.758;9.582;2023-07-29T04:43:27;98524.88;;;22.91;58.57
78488;BME280;67885;49.758;9.582;2023-07-29T04:45:55;98523.84;;;22.92;57.86
78488;BME280;67885;49.758;9.582;2023-07-29T04:48:22;98523.19;;;22.97;57.93
78488;BME280;67885;49.758;9.582;2023-07-29T04:50:49;98529.59;;;23.02;57.91
78488;BME280;67885;49.758;9.582;2023-07-29T04:53:15;98543.47;;;23.06;57.88
78488;BME280;67885;49.758;9.582;2023-07-29T04:55:42;98538.22;;;23.11;57.88
78488;BME280;67885;49.758;9.582;2023-07-29T04:58:09;98540.31;;;23.16;57.81
78488;BME280;67885;49.758;9.582;2023-07-29T05:00:35;98546.69;;;23.21;58.66
78488;BME280;67885;49.758;9.582;2023-07-29T05:03:03;98535.44;;;23.24;57.85
78488;BME280;67885;49.758;9.582;2023-07-29T05:05:30;98530.44;;;23.28;57.59
78488;BME280;67885;49.758;9.582;2023-07-29T05:07:57;98533.72;;;23.30;58.03
78488;BME280;67885;49.758;9.582;2023-07-29T05:10:23;98530.44;;;23.28;58.23
78488;BME280;67885;49.758;9.582;2023-07-29T05:12:50;98531.03;;;23.30;57.45
78488;BME280;67885;49.758;9.582;2023-07-29T05:15:16;98531.66;;;23.32;58.08
78488;BME280;67885;49.758;9.582;2023-07-29T05:17:44;98532.03;;;23.36;57.13
78488;BME280;67885;49.758;9.582;2023-07-29T05:20:12;98545.31;;;23.37;57.75
78488;BME280;67885;49.758;9.582;2023-07-29T05:22:38;98543.44;;;23.38;57.56
78488;BME280;67885;49.758;9.582;2023-07-29T05:25:06;98542.97;;;23.41;57.84
78488;BME280;67885;49.758;9.582;2023-07-29T05:27:33;98545.03;;;23.46;58.03
78488;BME280;67885;49.758;9.582;2023-07-29T05:29:59;98549.97;;;23.49;57.97
78488;BME280;67885;49.758;9.582;2023-07-29T05:32:26;98556.88;;;23.45;58.39
78488;BME280;67885;49.758;9.582;2023-07-29T05:34:53;98562.81;;;23.35;59.33
78488;BME280;67885;49.758;9.582;2023-07-29T05:37:21;98563.91;;;23.27;59.59
78488;BME280;67885;49.758;9.582;2023-07-29T05:39:47;98570.78;;;23.23;60.05
78488;BME280;67885;49.758;9.582;2023-07-29T05:42:14;98493.13;;;22.61;60.03
78488;BME280;67885;49.758;9.582;2023-07-29T05:44:41;98569.97;;;23.22;59.57
78488;BME280;67885;49.758;9.582;2023-07-29T05:47:07;98564.84;;;23.14;60.17
78488;BME280;67885;49.758;9.582;2023-07-29T05:49:34;98570.41;;;23.19;59.69
78488;BME280;67885;49.758;9.582;2023-07-29T05:52:01;98576.88;;;23.18;59.97
78488;BME280;67885;49.758;9.582;2023-07-29T05:54:29;98588.09;;;23.15;59.91
78488;BME280;67885;49.758;9.582;2023-07-29T05:56:56;98585.16;;;23.17;60.65
78488;BME280;67885;49.758;9.582;2023-07-29T05:59:22;98591.66;;;23.16;60.20
78488;BME280;67885;49.758;9.582;2023-07-29T06:01:49;98595.38;;;23.15;60.07
78488;BME280;67885;49.758;9.582;2023-07-29T06:04:15;98603.50;;;23.15;59.76
78488;BME280;67885;49.758;9.582;2023-07-29T06:06:42;98566.06;;;22.86;60.53
78488;BME280;67885;49.758;9.582;2023-07-29T06:09:09;98589.38;;;23.06;60.74
78488;BME280;67885;49.758;9.582;2023-07-29T06:11:37;98576.53;;;23.01;60.06
78488;BME280;67885;49.758;9.582;2023-07-29T06:14:03;98578.03;;;22.97;60.23
78488;BME280;67885;49.758;9.582;2023-07-29T06:16:30;98577.81;;;22.99;61.00
78488;BME280;67885;49.758;9.582;2023-07-29T06:18:57;98581.13;;;23.01;60.18
78488;BME280;67885;49.758;9.582;2023-07-29T06:21:23;98577.97;;;23.04;61.08
78488;BME280;67885;49.758;9.582;2023-07-29T06:23:50;98577.75;;;23.05;60.14
78488;BME280;67885;49.758;9.582;2023-07-29T06:26:17;98580.63;;;23.11;60.57
78488;BME280;67885;49.758;9.582;2023-07-29T06:28:45;98580.63;;;23.11;61.03
78488;BME280;67885;49.758;9.582;2023-07-29T06:31:11;98577.94;;;23.11;60.22
78488;BME280;67885;49.758;9.582;2023-07-29T06:33:38;98593.50;;;23.08;60.78
78488;BME280;67885;49.758;9.582;2023-07-29T06:36:04;98570.88;;;23.10;60.52
78488;BME280;67885;49.758;9.582;2023-07-29T06:38:31;98574.41;;;23.10;60.56
78488;BME280;67885;49.758;9.582;2023-07-29T06:40:58;98591.22;;;23.12;60.91
78488;BME280;67885;49.758;9.582;2023-07-29T06:43:24;98572.97;;;23.14;60.77
78488;BME280;67885;49.758;9.582;2023-07-29T06:45:52;98573.78;;;23.15;60.72
78488;BME280;67885;49.758;9.582;2023-07-29T06:48:19;98569.41;;;23.14;60.41
78488;BME280;67885;49.758;9.582;2023-07-29T06:50:45;98570.06;;;23.09;60.42
78488;BME280;67885;49.758;9.582;2023-07-29T06:53:12;98583.16;;;23.05;60.68
78488;BME280;67885;49.758;9.582;2023-07-29T06:55:40;98592.31;;;23.04;61.38
78488;BME280;67885;49.758;9.582;2023-07-29T06:58:06;98590.66;;;23.03;61.01
78488;BME280;67885;49.758;9.582;2023-07-29T07:00:33;98589.22;;;23.01;60.92
78488;BME280;67885;49.758;9.582;2023-07-29T07:03:01;98583.25;;;22.92;61.70
78488;BME280;67885;49.758;9.582;2023-07-29T07:05:28;98579.34;;;22.88;61.41
78488;BME280;67885;49.758;9.582;2023-07-29T07:07:54;98580.59;;;22.85;61.86
78488;BME280;67885;49.758;9.582;2023-07-29T07:10:21;98573.97;;;22.81;61.82
78488;BME280;67885;49.758;9.582;2023-07-29T07:12:48;98580.84;;;22.77;61.37
78488;BME280;67885;49.758;9.582;2023-07-29T07:15:14;98584.66;;;22.69;61.22
78488;BME280;67885;49.758;9.582;2023-07-29T07:17:41;98578.25;;;22.64;61.53
78488;BME280;67885;49.758;9.582;2023-07-29T07:20:10;98571.25;;;22.56;62.20
78488;BME280;67885;49.758;9.582;2023-07-29T07:22:37;98555.91;;;22.50;62.92
78488;BME280;67885;49.758;9.582;2023-07-29T07:25:05;98561.94;;;22.52;63.06
78488;BME280;67885;49.758;9.582;2023-07-29T07:27:31;98564.63;;;22.52;63.42
78488;BME280;67885;49.758;9.582;2023-07-29T07:29:58;98563.97;;;22.56;63.24
78488;BME280;67885;49.758;9.582;2023-07-29T07:32:26;98566.00;;;22.61;63.23
78488;BME280;67885;49.758;9.582;2023-07-29T07:34:52;98554.78;;;22.64;63.55
78488;BME280;67885;49.758;9.582;2023-07-29T07:37:20;98554.97;;;22.69;62.93
78488;BME280;67885;49.758;9.582;2023-07-29T07:39:47;98555.13;;;22.74;63.17
78488;BME280;67885;49.758;9.582;2023-07-29T07:42:14;98553.38;;;22.87;63.45
78488;BME280;67885;49.758;9.582;2023-07-29T07:44:40;98558.84;;;23.05;64.64
78488;BME280;67885;49.758;9.582;2023-07-29T07:47:07;98563.72;;;23.22;63.16
78488;BME280;67885;49.758;9.582;2023-07-29T07:49:34;98563.44;;;23.30;63.62
78488;BME280;67885;49.758;9.582;2023-07-29T07:52:00;98573.38;;;23.36;62.47
78488;BME280;67885;49.758;9.582;2023-07-29T07:54:28;98576.25;;;23.42;62.87
78488;BME280;67885;49.758;9.582;2023-07-29T07:56:55;98587.06;;;23.42;61.67
78488;BME280;67885;49.758;9.582;2023-07-29T07:59:21;98586.38;;;23.46;62.10
78488;BME280;67885;49.758;9.582;2023-07-29T08:01:48;98588.63;;;23.49;62.40
78488;BME280;67885;49.758;9.582;2023-07-29T08:04:14;98591.97;;;23.51;62.12
78488;BME280;67885;49.758;9.582;2023-07-29T08:06:41;98598.13;;;23.58;62.49
78488;BME280;67885;49.758;9.582;2023-07-29T08:09:08;98589.13;;;23.65;62.60
78488;BME280;67885;49.758;9.582;2023-07-29T08:11:36;98582.59;;;23.72;62.41
78488;BME280;67885;49.758;9.582;2023-07-29T08:14:02;98597.69;;;23.80;62.36
78488;BME280;67885;49.758;9.582;2023-07-29T08:16:29;98609.13;;;23.82;62.28
78488;BME280;67885;49.758;9.582;2023-07-29T08:18:55;98604.44;;;23.52;61.64
78488;BME280;67885;49.758;9.582;2023-07-29T08:21:22;98616.09;;;23.71;61.98
78488;BME280;67885;49.758;9.582;2023-07-29T08:23:49;98594.75;;;23.63;62.29
78488;BME280;67885;49.758;9.582;2023-07-29T08:26:15;98552.53;;;23.44;60.83
78488;BME280;67885;49.758;9.582;2023-07-29T08:28:43;98595.56;;;23.64;61.88
78488;BME280;67885;49.758;9.582;2023-07-29T08:31:10;98606.78;;;23.67;61.86
78488;BME280;67885;49.758;9.582;2023-07-29T08:33:36;98623.38;;;23.71;62.15
78488;BME280;67885;49.758;9.582;2023-07-29T08:36:03;98540.03;;;23.24;61.40
78488;BME280;67885;49.758;9.582;2023-07-29T08:38:30;98623.31;;;23.78;61.54
78488;BME280;67885;49.758;9.582;2023-07-29T08:41:06;98633.69;;;23.81;61.52
78488;BME280;67885;49.758;9.582;2023-07-29T08:43:39;98629.34;;;23.80;59.78
78488;BME280;67885;49.758;9.582;2023-07-29T08:46:07;98629.97;;;23.75;59.09
78488;BME280;67885;49.758;9.582;2023-07-29T08:48:40;98631.47;;;23.71;60.43
78488;BME280;67885;49.758;9.582;2023-07-29T08:51:09;98648.78;;;23.70;60.36
78488;BME280;67885;49.758;9.582;2023-07-29T08:53:36;98647.13;;;23.69;60.31
78488;BME280;67885;49.758;9.582;2023-07-29T08:56:04;98627.34;;;23.68;60.09
78488;BME280;67885;49.758;9.582;2023-07-29T08:58:31;98614.22;;;23.47;59.58
78488;BME280;67885;49.758;9.582;2023-07-29T09:00:58;98619.03;;;23.70;59.53
78488;BME280;67885;49.758;9.582;2023-07-29T09:03:26;98606.34;;;23.70;60.11
78488;BME280;67885;49.758;9.582;2023-07-29T09:05:53;98620.44;;;23.72;59.44
78488;BME280;67885;49.758;9.582;2023-07-29T09:08:23;98624.81;;;23.73;58.39
78488;BME280;67885;49.758;9.582;2023-07-29T09:10:51;98620.06;;;23.69;58.99
78488;BME280;67885;49.758;9.582;2023-07-29T09:13:19;98629.22;;;23.68;60.14
78488;BME280;67885;49.758;9.582;2023-07-29T09:15:45;98621.41;;;23.60;59.86
78488;BME280;67885;49.758;9.582;2023-07-29T09:18:15;98611.47;;;23.53;59.80
78488;BME280;67885;49.758;9.582;2023-07-29T09:20:46;98581.25;;;23.38;60.51
78488;BME280;67885;49.758;9.582;2023-07-29T09:23:14;98601.06;;;23.57;59.40
78488;BME280;67885;49.758;9.582;2023-07-29T09:25:41;98588.63;;;23.49;59.89
78488;BME280;67885;49.758;9.582;2023-07-29T09:28:10;98606.34;;;23.70;59.33
78488;BME280;67885;49.758;9.582;2023-07-29T09:30:38;98599.44;;;23.74;58.59
78488;BME280;67885;49.758;9.582;2023-07-29T09:33:05;98597.69;;;23.80;57.73
78488;BME280;67885;49.758;9.582;2023-07-29T09:35:34;98562.09;;;23.65;58.03
78488;BME280;67885;49.758;9.582;2023-07-29T09:38:03;98547.59;;;23.59;57.66
78488;BME280;67885;49.758;9.582;2023-07-29T09:40:34;98595.13;;;23.92;57.85
78488;BME280;67885;49.758;9.582;2023-07-29T09:43:03;98597.69;;;24.05;59.81
78488;BME280;67885;49.758;9.582;2023-07-29T09:45:33;98603.22;;;24.29;60.09
78488;BME280;67885;49.758;9.582;2023-07-29T09:48:01;98612.97;;;24.49;58.00
78488;BME280;67885;49.758;9.582;2023-07-29T09:50:28;98613.41;;;24.64;58.46
78488;BME280;67885;49.758;9.582;2023-07-29T09:52:56;98602.03;;;24.74;58.94
78488;BME280;67885;49.758;9.582;2023-07-29T09:55:26;98608.81;;;24.95;57.79
78488;BME280;67885;49.758;9.582;2023-07-29T09:57:54;98611.34;;;25.08;58.44
78488;BME280;67885;49.758;9.582;2023-07-29T10:00:23;98622.41;;;25.19;57.08
78488;BME280;67885;49.758;9.582;2023-07-29T10:02:50;98606.88;;;25.26;57.31
78488;BME280;67885;49.758;9.582;2023-07-29T10:05:18;98612.00;;;25.34;57.60
78488;BME280;67885;49.758;9.582;2023-07-29T10:07:46;98608.56;;;25.39;56.57
78488;BME280;67885;49.758;9.582;2023-07-29T10:10:13;98597.25;;;25.42;54.84
78488;BME280;67885;49.758;9.582;2023-07-29T10:12:42;98586.19;;;25.44;55.40
78488;BME280;67885;49.758;9.582;2023-07-29T10:15:10;98586.53;;;25.47;54.05
78488;BME280;67885;49.758;9.582;2023-07-29T10:20:12;98438.19;;;24.41;57.16
78488;BME280;67885;49.758;9.582;2023-07-29T10:22:47;98424.38;;;24.85;57.91
78488;BME280;67885;49.758;9.582;2023-07-29T10:27:55;98572.59;;;26.03;57.21
78488;BME280;67885;49.758;9.582;2023-07-29T10:30:24;98575.25;;;26.27;57.96
78488;BME280;67885;49.758;9.582;2023-07-29T10:32:52;98576.53;;;26.36;57.30
78488;BME280;67885;49.758;9.582;2023-07-29T10:35:19;98579.66;;;26.45;57.04
78488;BME280;67885;49.758;9.582;2023-07-29T10:37:46;98576.06;;;26.56;57.24
78488;BME280;67885;49.758;9.582;2023-07-29T10:40:16;98570.25;;;26.64;57.54
78488;BME280;67885;49.758;9.582;2023-07-29T10:48:10;98201.31;;;24.27;52.68
78488;BME280;67885;49.758;9.582;2023-07-29T10:55:51;98249.91;;;24.33;54.61
78488;BME280;67885;49.758;9.582;2023-07-29T10:58:18;98467.00;;;26.30;54.63
78488;BME280;67885;49.758;9.582;2023-07-29T11:00:46;98382.59;;;25.86;54.51
78488;BME280;67885;49.758;9.582;2023-07-29T11:03:14;98554.63;;;27.00;53.97
78488;BME280;67885;49.758;9.582;2023-07-29T11:05:49;98562.22;;;26.98;53.32
78488;BME280;67885;49.758;9.582;2023-07-29T11:08:17;98565.47;;;27.00;55.23
78488;BME280;67885;49.758;9.582;2023-07-29T11:10:57;98567.06;;;27.13;55.43
78488;BME280;67885;49.758;9.582;2023-07-29T11:13:26;98195.75;;;24.69;54.73
78488;BME280;67885;49.758;9.582;2023-07-29T11:15:54;98355.28;;;25.75;51.73
78488;BME280;67885;49.758;9.582;2023-07-29T11:18:27;98213.16;;;25.14;51.25
78488;BME280;67885;49.758;9.582;2023-07-29T11:20:56;98570.88;;;27.46;51.29
78488;BME280;67885;49.758;9.582;2023-07-29T11:23:28;98551.66;;;27.53;50.92
78488;BME280;67885;49.758;9.582;2023-07-29T11:25:55;98551.72;;;27.58;50.45
78488;BME280;67885;49.758;9.582;2023-07-29T11:28:24;98549.56;;;27.60;49.73
78488;BME280;67885;49.758;9.582;2023-07-29T11:30:51;98554.75;;;27.62;49.31
78488;BME280;67885;49.758;9.582;2023-07-29T11:33:20;98536.56;;;27.45;49.99
78488;BME280;67885;49.758;9.582;2023-07-29T11:35:49;98552.53;;;27.58;51.18
78488;BME280;67885;49.758;9.582;2023-07-29T11:38:16;98529.81;;;27.48;50.10
78488;BME280;67885;49.758;9.582;2023-07-29T11:40:44;98537.53;;;27.56;49.75
78488;BME280;67885;49.758;9.582;2023-07-29T11:43:19;98562.25;;;27.71;50.05
78488;BME280;67885;49.758;9.582;2023-07-29T11:45:46;98492.16;;;27.39;47.97
78488;BME280;67885;49.758;9.582;2023-07-29T11:48:13;98403.78;;;26.81;48.74
78488;BME280;67885;49.758;9.582;2023-07-29T12:04:24;98551.69;;;27.75;46.53
78488;BME280;67885;49.758;9.582;2023-07-29T12:06:51;98523.41;;;27.76;47.00
78488;BME280;67885;49.758;9.582;2023-07-29T12:09:19;98493.28;;;27.61;46.55
78488;BME280;67885;49.758;9.582;2023-07-29T12:11:46;98511.38;;;27.72;47.48
78488;BME280;67885;49.758;9.582;2023-07-29T12:14:13;98521.38;;;27.66;47.11
78488;BME280;67885;49.758;9.582;2023-07-29T12:16:40;98544.38;;;27.58;47.79
78488;BME280;67885;49.758;9.582;2023-07-29T12:19:07;98531.56;;;27.54;47.95
78488;BME280;67885;49.758;9.582;2023-07-29T12:21:35;98529.81;;;27.48;48.47
78488;BME280;67885;49.758;9.582;2023-07-29T12:24:02;98533.78;;;27.40;49.20
78488;BME280;67885;49.758;9.582;2023-07-29T12:26:29;98538.28;;;27.34;47.83
78488;BME280;67885;49.758;9.582;2023-07-29T12:28:56;98533.03;;;27.27;49.36
78488;BME280;67885;49.758;9.582;2023-07-29T12:31:31;98539.78;;;27.25;49.84
78488;BME280;67885;49.758;9.582;2023-07-29T12:33:58;98532.94;;;27.22;49.82
78488;BME280;67885;49.758;9.582;2023-07-29T12:36:41;98539.94;;;27.18;50.66
78488;BME280;67885;49.758;9.582;2023-07-29T12:39:16;98531.47;;;27.15;50.65
78488;BME280;67885;49.758;9.582;2023-07-29T12:41:42;98534.38;;;27.08;50.38
78488;BME280;67885;49.758;9.582;2023-07-29T12:44:09;98536.59;;;26.94;49.97
78488;BME280;67885;49.758;9.582;2023-07-29T12:46:36;98516.97;;;26.75;50.90
78488;BME280;67885;49.758;9.582;2023-07-29T12:49:02;98535.97;;;26.75;50.53
78488;BME280;67885;49.758;9.582;2023-07-29T12:51:29;98533.03;;;26.77;49.88
78488;BME280;67885;49.758;9.582;2023-07-29T12:53:57;98529.72;;;26.74;49.46
78488;BME280;67885;49.758;9.582;2023-07-29T12:56:23;98530.78;;;26.73;49.47
78488;BME280;67885;49.758;9.582;2023-07-29T12:58:50;98524.28;;;26.74;51.65
78488;BME280;67885;49.758;9.582;2023-07-29T13:01:16;98529.22;;;26.78;50.32
78488;BME280;67885;49.758;9.582;2023-07-29T13:03:43;98527.66;;;26.82;50.74
78488;BME280;67885;49.758;9.582;2023-07-29T13:06:11;98523.38;;;26.86;50.07
78488;BME280;67885;49.758;9.582;2023-07-29T13:08:37;98512.34;;;26.92;51.47
78488;BME280;67885;49.758;9.582;2023-07-29T13:11:05;98510.63;;;27.03;50.81
78488;BME280;67885;49.758;9.582;2023-07-29T13:13:32;98508.63;;;27.16;49.34
78488;BME280;67885;49.758;9.582;2023-07-29T13:15:59;98508.00;;;27.25;49.85
78488;BME280;67885;49.758;9.582;2023-07-29T13:18:26;98361.31;;;26.40;49.96
78488;BME280;67885;49.758;9.582;2023-07-29T13:20:53;98434.31;;;26.88;50.44
78488;BME280;67885;49.758;9.582;2023-07-29T13:23:20;98466.31;;;27.20;49.99
78488;BME280;67885;49.758;9.582;2023-07-29T13:25:47;98497.34;;;27.41;50.11
78488;BME280;67885;49.758;9.582;2023-07-29T13:28:15;98490.84;;;27.42;50.37
78488;BME280;67885;49.758;9.582;2023-07-29T13:30:42;98497.34;;;27.41;49.39
78488;BME280;67885;49.758;9.582;2023-07-29T13:33:09;98499.25;;;27.40;49.40